createdAt,value
2019-05-23T00:01:02.172Z,6.50
2019-05-23T00:03:40.176Z,6.50
2019-05-23T00:06:12.952Z,6.50
2019-05-23T00:08:43.316Z,6.50
2019-05-23T00:11:33.070Z,6.50
2019-05-23T00:14:07.633Z,6.40
2019-05-23T00:16:38.564Z,6.40
2019-05-23T00:19:07.920Z,6.30
2019-05-23T00:21:39.203Z,6.20
2019-05-23T00:24:09.078Z,6.20
2019-05-23T00:26:39.096Z,6.20
2019-05-23T00:29:10.981Z,6.20
2019-05-23T00:31:52.558Z,6.20
2019-05-23T00:34:22.004Z,6.20
2019-05-23T00:36:51.468Z,6.10
2019-05-23T00:39:21.329Z,6.10
2019-05-23T00:41:51.434Z,6.10
2019-05-23T00:44:20.975Z,6.00
2019-05-23T00:46:50.355Z,6.00
2019-05-23T00:49:19.920Z,6.00
2019-05-23T00:51:50.301Z,6.00
2019-05-23T00:54:20.954Z,6.00
2019-05-23T00:56:50.847Z,6.00
2019-05-23T00:59:27.223Z,6.00
2019-05-23T01:01:52.421Z,5.90
2019-05-23T01:04:21.988Z,5.80
2019-05-23T01:06:53.244Z,5.80
2019-05-23T01:09:22.799Z,5.70
2019-05-23T01:11:52.182Z,5.70
2019-05-23T01:14:22.200Z,5.70
2019-05-23T01:16:53.619Z,5.60
2019-05-23T01:19:23.276Z,5.60
2019-05-23T01:22:03.012Z,5.50
2019-05-23T01:24:38.333Z,5.50
2019-05-23T01:27:08.672Z,5.60
2019-05-23T01:29:42.197Z,5.50
2019-05-23T01:32:17.127Z,5.50
2019-05-23T01:34:47.684Z,5.50
2019-05-23T01:37:18.392Z,5.40
2019-05-23T01:39:47.943Z,5.40
2019-05-23T01:42:18.505Z,5.50
2019-05-23T01:44:48.493Z,5.50
2019-05-23T01:47:18.272Z,5.40
2019-05-23T01:49:49.210Z,5.40
2019-05-23T01:52:18.921Z,5.40
2019-05-23T01:54:48.915Z,5.40
2019-05-23T01:57:18.715Z,5.40
2019-05-23T01:59:48.454Z,5.40
2019-05-23T02:02:19.239Z,5.40
2019-05-23T02:04:49.177Z,5.40
2019-05-23T02:07:19.805Z,5.30
2019-05-23T02:09:49.679Z,5.30
2019-05-23T02:12:19.336Z,5.30
2019-05-23T02:14:49.922Z,5.30
2019-05-23T02:17:19.472Z,5.30
2019-05-23T02:19:48.953Z,5.20
2019-05-23T02:22:18.411Z,5.20
2019-05-23T02:24:48.311Z,5.20
2019-05-23T02:27:18.055Z,5.20
2019-05-23T02:29:47.436Z,5.20
2019-05-23T02:32:18.092Z,5.20
2019-05-23T02:34:48.281Z,5.20
2019-05-23T02:37:35.493Z,5.10
2019-05-23T02:40:21.978Z,5.10
2019-05-23T02:43:00.760Z,5.10
2019-05-23T02:45:39.138Z,5.00
2019-05-23T02:48:12.348Z,5.00
2019-05-23T02:50:47.602Z,5.00
2019-05-23T02:53:19.494Z,5.00
2019-05-23T02:55:52.980Z,5.00
2019-05-23T02:58:29.458Z,5.00
2019-05-23T03:01:20.848Z,5.00
2019-05-23T03:03:51.871Z,4.90
2019-05-23T03:06:23.473Z,4.90
2019-05-23T03:08:54.536Z,4.80
2019-05-23T03:11:39.896Z,4.80
2019-05-23T03:14:11.615Z,4.70
2019-05-23T03:16:43.847Z,4.70
2019-05-23T03:19:23.269Z,4.70
2019-05-23T03:21:56.480Z,4.70
2019-05-23T03:24:26.547Z,4.70
2019-05-23T03:27:05.374Z,4.70
2019-05-23T03:29:35.679Z,4.70
2019-05-23T03:32:25.542Z,4.80
2019-05-23T03:35:01.466Z,4.80
2019-05-23T03:37:30.792Z,4.80
2019-05-23T03:40:00.238Z,4.90
2019-05-23T03:42:30.927Z,4.90
2019-05-23T03:45:00.779Z,5.00
2019-05-23T03:47:31.716Z,5.10
2019-05-23T03:50:01.331Z,5.20
2019-05-23T03:52:32.363Z,5.30
2019-05-23T03:55:02.421Z,5.40
2019-05-23T03:57:32.297Z,5.60
2019-05-23T04:00:02.251Z,5.80
2019-05-23T04:02:32.244Z,6.00
2019-05-23T04:05:02.844Z,6.30
2019-05-23T04:07:33.404Z,6.40
2019-05-23T04:10:03.490Z,6.60
2019-05-23T04:12:33.566Z,6.80
2019-05-23T04:15:03.928Z,7.00
2019-05-23T04:17:34.106Z,7.10
2019-05-23T04:20:03.473Z,7.20
2019-05-23T04:22:33.249Z,7.30
2019-05-23T04:25:02.959Z,7.30
2019-05-23T04:27:32.512Z,7.30
2019-05-23T04:30:01.881Z,7.30
2019-05-23T04:32:31.230Z,7.50
2019-05-23T04:35:00.677Z,7.60
2019-05-23T04:37:30.645Z,7.90
2019-05-23T04:40:00.907Z,8.00
2019-05-23T04:42:30.513Z,8.20
2019-05-23T04:44:59.860Z,8.40
2019-05-23T04:47:29.637Z,8.50
2019-05-23T04:49:59.084Z,8.80
2019-05-23T04:52:28.669Z,9.20
2019-05-23T04:54:59.045Z,9.80
2019-05-23T04:57:29.527Z,10.40
2019-05-23T04:59:58.983Z,11.10
2019-05-23T05:02:30.231Z,11.80
2019-05-23T05:04:59.627Z,12.60
2019-05-23T05:07:29.000Z,13.50
2019-05-23T05:09:58.332Z,14.40
2019-05-23T05:12:28.242Z,15.30
2019-05-23T05:14:57.626Z,16.00
2019-05-23T05:17:27.207Z,16.80
2019-05-23T05:19:56.557Z,17.60
2019-05-23T05:22:26.743Z,18.30
2019-05-23T05:24:56.166Z,18.70
2019-05-23T05:27:25.763Z,19.00
2019-05-23T05:29:55.456Z,19.40
2019-05-23T05:32:41.504Z,19.40
2019-05-23T05:34:57.436Z,19.30
2019-05-23T05:37:27.016Z,19.60
2019-05-23T05:39:56.972Z,19.80
2019-05-23T05:42:26.947Z,20.30
2019-05-23T05:44:56.362Z,20.90
2019-05-23T05:47:26.388Z,21.40
2019-05-23T05:49:55.763Z,21.50
2019-05-23T05:52:25.165Z,21.50
2019-05-23T05:54:54.523Z,21.70
2019-05-23T05:57:23.904Z,22.20
2019-05-23T05:59:53.456Z,22.40
2019-05-23T06:02:23.586Z,22.50
2019-05-23T06:04:52.955Z,22.60
2019-05-23T06:07:39.097Z,22.70
2019-05-23T06:10:11.165Z,22.70
2019-05-23T06:12:40.526Z,22.50
2019-05-23T06:15:10.382Z,22.30
2019-05-23T06:17:39.759Z,22.50
2019-05-23T06:20:11.557Z,22.70
2019-05-23T06:22:42.060Z,22.80
2019-05-23T06:25:12.934Z,22.40
2019-05-23T06:27:42.464Z,22.20
2019-05-23T06:30:13.681Z,22.30
2019-05-23T06:32:43.182Z,22.10
2019-05-23T06:35:13.762Z,21.90
2019-05-23T06:37:43.342Z,22.00
2019-05-23T06:40:13.323Z,21.90
2019-05-23T06:42:42.701Z,21.70
2019-05-23T06:45:12.482Z,21.60
2019-05-23T06:47:42.233Z,21.40
2019-05-23T06:50:16.077Z,21.40
2019-05-23T06:52:45.452Z,21.40
2019-05-23T06:55:14.833Z,21.10
2019-05-23T06:57:44.199Z,20.90
2019-05-23T07:00:14.989Z,20.70
2019-05-23T07:02:45.053Z,20.70
2019-05-23T07:05:15.833Z,21.00
2019-05-23T07:07:45.208Z,21.30
2019-05-23T07:10:14.879Z,21.60
2019-05-23T07:12:44.484Z,22.00
2019-05-23T07:15:14.820Z,22.20
2019-05-23T07:17:44.587Z,22.30
2019-05-23T07:20:15.579Z,22.30
2019-05-23T07:22:45.293Z,22.40
2019-05-23T07:25:15.527Z,22.90
2019-05-23T07:27:45.284Z,23.40
2019-05-23T07:30:19.408Z,23.80
2019-05-23T07:32:48.779Z,24.00
2019-05-23T07:35:19.197Z,24.10
2019-05-23T07:37:48.556Z,24.20
2019-05-23T07:40:18.946Z,24.10
2019-05-23T07:42:48.540Z,24.40
2019-05-23T07:45:22.119Z,24.80
2019-05-23T07:47:51.480Z,24.80
2019-05-23T07:50:21.165Z,24.30
2019-05-23T07:52:50.724Z,23.70
2019-05-23T07:55:25.345Z,23.30
2019-05-23T07:57:54.905Z,23.20
2019-05-23T08:00:28.689Z,23.30
2019-05-23T08:03:00.194Z,23.50
2019-05-23T08:05:29.664Z,23.70
2019-05-23T08:07:59.463Z,23.70
2019-05-23T08:10:33.797Z,23.30
2019-05-23T08:13:01.002Z,23.10
2019-05-23T08:15:30.601Z,23.20
2019-05-23T08:17:59.968Z,23.20
2019-05-23T08:20:29.345Z,23.10
2019-05-23T08:22:58.720Z,23.20
2019-05-23T08:25:28.464Z,23.20
2019-05-23T08:27:58.237Z,23.40
2019-05-23T08:30:27.852Z,23.60
2019-05-23T08:32:57.373Z,23.70
2019-05-23T08:35:26.761Z,23.60
2019-05-23T08:37:56.227Z,23.90
2019-05-23T08:40:26.840Z,24.40
2019-05-23T08:42:56.331Z,24.80
2019-05-23T08:45:25.723Z,24.80
2019-05-23T08:47:55.503Z,24.60
2019-05-23T08:50:25.012Z,24.40
2019-05-23T08:52:54.373Z,24.40
2019-05-23T08:55:25.091Z,24.50
2019-05-23T08:57:55.228Z,24.60
2019-05-23T09:00:27.015Z,24.50
2019-05-23T09:02:58.703Z,24.60
2019-05-23T09:05:32.213Z,25.10
2019-05-23T09:08:01.897Z,25.30
2019-05-23T09:10:32.875Z,25.60
2019-05-23T09:13:02.276Z,25.80
2019-05-23T09:15:31.656Z,25.40
2019-05-23T09:18:01.128Z,25.50
2019-05-23T09:20:30.619Z,25.20
2019-05-23T09:22:59.984Z,25.10
2019-05-23T09:25:29.671Z,25.00
2019-05-23T09:27:59.091Z,25.30
2019-05-23T09:30:29.995Z,25.50
2019-05-23T09:32:59.500Z,25.60
2019-05-23T09:35:29.288Z,25.70
2019-05-23T09:37:58.646Z,25.60
2019-05-23T09:40:28.249Z,25.70
2019-05-23T09:42:57.712Z,25.70
2019-05-23T09:45:27.115Z,25.50
2019-05-23T09:47:56.518Z,24.90
2019-05-23T09:50:27.671Z,24.10
2019-05-23T09:52:57.087Z,23.50
2019-05-23T09:55:27.231Z,22.80
2019-05-23T09:57:56.661Z,22.20
2019-05-23T10:00:26.148Z,21.60
2019-05-23T10:02:55.748Z,21.30
2019-05-23T10:05:42.073Z,21.20
2019-05-23T10:07:56.444Z,21.60
2019-05-23T10:10:26.129Z,22.30
2019-05-23T10:12:55.493Z,23.20
2019-05-23T10:15:46.995Z,23.80
2019-05-23T10:18:19.587Z,24.30
2019-05-23T10:20:48.993Z,24.60
2019-05-23T10:23:18.420Z,24.90
2019-05-23T10:25:47.815Z,24.60
2019-05-23T10:28:17.226Z,24.00
2019-05-23T10:30:46.640Z,23.30
2019-05-23T10:33:16.042Z,22.50
2019-05-23T10:35:59.834Z,21.80
2019-05-23T10:38:16.616Z,21.60
2019-05-23T10:40:45.961Z,21.40
2019-05-23T10:43:15.388Z,21.40
2019-05-23T10:45:44.852Z,21.30
2019-05-23T10:48:15.956Z,21.40
2019-05-23T10:50:45.600Z,21.30
2019-05-23T10:53:15.991Z,21.20
2019-05-23T10:55:45.378Z,21.30
2019-05-23T10:58:15.506Z,21.50
2019-05-23T11:00:45.925Z,21.90
2019-05-23T11:03:16.002Z,22.60
2019-05-23T11:05:45.396Z,23.40
2019-05-23T11:08:15.152Z,24.40
2019-05-23T11:10:44.736Z,24.90
2019-05-23T11:13:14.103Z,25.10
2019-05-23T11:15:43.824Z,25.30
2019-05-23T11:18:13.591Z,25.10
2019-05-23T11:20:43.063Z,25.30
2019-05-23T11:23:14.790Z,25.40
2019-05-23T11:25:44.651Z,25.60
2019-05-23T11:28:14.241Z,25.10
2019-05-23T11:30:51.500Z,24.40
2019-05-23T11:33:21.814Z,24.30
2019-05-23T11:35:52.005Z,24.70
2019-05-23T11:38:21.430Z,24.90
2019-05-23T11:40:51.551Z,24.90
2019-05-23T11:43:20.976Z,25.10
2019-05-23T11:45:57.532Z,25.30
2019-05-23T11:48:27.514Z,25.60
2019-05-23T11:50:56.875Z,25.70
2019-05-23T11:53:26.680Z,25.60
2019-05-23T11:55:56.043Z,25.10
2019-05-23T11:58:25.738Z,25.10
2019-05-23T12:01:19.863Z,25.00
2019-05-23T12:03:44.891Z,25.30
2019-05-23T12:06:14.529Z,25.10
2019-05-23T12:08:43.929Z,25.20
2019-05-23T12:11:13.829Z,25.20
2019-05-23T12:13:43.220Z,25.00
2019-05-23T12:16:12.586Z,25.00
2019-05-23T12:18:42.068Z,25.10
2019-05-23T12:21:11.437Z,25.30
2019-05-23T12:23:40.828Z,25.40
2019-05-23T12:26:10.284Z,25.40
2019-05-23T12:28:39.669Z,25.30
2019-05-23T12:31:09.428Z,25.30
2019-05-23T12:33:38.916Z,25.20
2019-05-23T12:36:10.273Z,25.20
2019-05-23T12:38:39.762Z,25.20
2019-05-23T12:41:10.757Z,25.30
2019-05-23T12:43:40.168Z,25.20
2019-05-23T12:46:09.660Z,25.10
2019-05-23T12:48:46.644Z,25.20
2019-05-23T12:51:17.439Z,25.20
2019-05-23T12:53:47.007Z,25.00
2019-05-23T12:56:16.783Z,24.80
2019-05-23T12:58:46.466Z,24.70
2019-05-23T13:01:16.338Z,24.80
2019-05-23T13:03:46.512Z,24.90
2019-05-23T13:06:15.864Z,24.60
2019-05-23T13:08:45.241Z,24.20
2019-05-23T13:11:14.701Z,23.90
2019-05-23T13:13:44.078Z,23.70
2019-05-23T13:16:13.432Z,24.00
2019-05-23T13:18:42.818Z,24.50
2019-05-23T13:21:12.382Z,24.80
2019-05-23T13:23:41.769Z,25.00
2019-05-23T13:26:11.224Z,25.00
2019-05-23T13:28:40.634Z,25.00
2019-05-23T13:31:10.292Z,25.10
2019-05-23T13:33:39.656Z,25.30
2019-05-23T13:36:09.039Z,25.40
2019-05-23T13:38:38.407Z,25.60
2019-05-23T13:41:07.812Z,25.70
2019-05-23T13:43:37.500Z,25.60
2019-05-23T13:46:06.860Z,25.60
2019-05-23T13:48:36.660Z,25.10
2019-05-23T13:51:06.431Z,24.70
2019-05-23T13:53:35.785Z,24.50
2019-05-23T13:56:05.567Z,24.50
2019-05-23T13:58:35.229Z,24.50
2019-05-23T14:01:09.170Z,24.70
2019-05-23T14:03:36.635Z,24.90
2019-05-23T14:06:07.647Z,24.30
2019-05-23T14:08:37.002Z,23.90
2019-05-23T14:11:06.747Z,23.60
2019-05-23T14:13:36.209Z,23.50
2019-05-23T14:16:06.605Z,23.20
2019-05-23T14:18:36.707Z,23.00
2019-05-23T14:21:06.413Z,23.00
2019-05-23T14:23:35.772Z,23.10
2019-05-23T14:26:06.040Z,23.20
2019-05-23T14:28:35.323Z,23.40
2019-05-23T14:31:09.992Z,23.60
2019-05-23T14:34:07.723Z,23.60
2019-05-23T14:36:56.044Z,23.60
2019-05-23T14:39:34.023Z,23.50
2019-05-23T14:42:21.490Z,23.60
2019-05-23T14:44:51.347Z,23.40
2019-05-23T14:47:54.726Z,23.40
2019-05-23T14:50:52.588Z,23.40
2019-05-23T14:53:23.284Z,23.50
2019-05-23T14:55:52.673Z,23.60
2019-05-23T14:58:22.547Z,23.60
2019-05-23T15:00:52.341Z,23.50
2019-05-23T15:03:22.609Z,23.50
2019-05-23T15:05:52.019Z,23.20
2019-05-23T15:08:21.503Z,22.70
2019-05-23T15:10:50.894Z,22.30
2019-05-23T15:13:20.267Z,22.30
2019-05-23T15:15:49.656Z,22.40
2019-05-23T15:18:19.128Z,22.60
2019-05-23T15:20:48.504Z,22.50
2019-05-23T15:23:17.963Z,22.30
2019-05-23T15:25:47.668Z,22.10
2019-05-23T15:28:17.045Z,21.80
2019-05-23T15:30:46.408Z,21.70
2019-05-23T15:33:15.796Z,21.80
2019-05-23T15:35:45.164Z,21.80
2019-05-23T15:38:14.553Z,21.80
2019-05-23T15:40:43.909Z,21.70
2019-05-23T15:43:13.318Z,21.50
2019-05-23T15:45:42.676Z,21.40
2019-05-23T15:48:12.242Z,21.20
2019-05-23T15:50:47.040Z,21.30
2019-05-23T15:53:28.241Z,21.20
2019-05-23T15:56:25.813Z,21.20
2019-05-23T15:58:59.095Z,21.20
2019-05-23T16:01:41.436Z,21.20
2019-05-23T16:04:12.788Z,21.30
2019-05-23T16:06:42.639Z,21.30
2019-05-23T16:09:28.441Z,21.30
2019-05-23T16:11:45.457Z,21.40
2019-05-23T16:14:15.419Z,21.30
2019-05-23T16:16:45.327Z,21.30
2019-05-23T16:19:14.868Z,21.20
2019-05-23T16:21:44.337Z,21.10
2019-05-23T16:24:14.231Z,21.10
2019-05-23T16:26:43.913Z,21.20
2019-05-23T16:29:13.779Z,21.30
2019-05-23T16:31:43.282Z,21.30
2019-05-23T16:34:12.647Z,21.20
2019-05-23T16:36:42.004Z,21.10
2019-05-23T16:39:11.491Z,20.90
2019-05-23T16:41:40.867Z,20.90
2019-05-23T16:44:10.263Z,20.80
2019-05-23T16:46:39.776Z,20.80
2019-05-23T16:49:09.147Z,20.80
2019-05-23T16:51:38.523Z,20.90
2019-05-23T16:54:08.105Z,20.80
2019-05-23T16:56:47.418Z,20.80
2019-05-23T16:59:29.228Z,20.80
2019-05-23T17:02:07.061Z,20.80
2019-05-23T17:05:08.561Z,20.70
2019-05-23T17:07:42.432Z,20.60
2019-05-23T17:10:22.883Z,20.50
2019-05-23T17:13:01.131Z,20.50
2019-05-23T17:15:47.379Z,20.50
2019-05-23T17:18:26.695Z,20.50
2019-05-23T17:21:33.532Z,20.60
2019-05-23T17:24:12.672Z,20.50
2019-05-23T17:27:09.727Z,20.40
2019-05-23T17:29:56.324Z,20.30
2019-05-23T17:32:30.099Z,20.20
2019-05-23T17:34:59.476Z,20.10
2019-05-23T17:37:28.848Z,20.00
2019-05-23T17:39:58.770Z,20.00
2019-05-23T17:42:28.216Z,19.90
2019-05-23T17:44:57.629Z,19.80
2019-05-23T17:47:27.279Z,19.80
2019-05-23T17:49:56.656Z,19.70
2019-05-23T17:52:26.356Z,19.60
2019-05-23T17:54:55.755Z,19.50
2019-05-23T17:57:25.366Z,19.30
2019-05-23T17:59:54.745Z,19.30
2019-05-23T18:02:24.604Z,19.30
2019-05-23T18:04:54.818Z,19.30
2019-05-23T18:07:24.583Z,19.20
2019-05-23T18:09:53.978Z,19.10
2019-05-23T18:12:23.339Z,19.00
2019-05-23T18:14:53.733Z,18.90
2019-05-23T18:17:23.501Z,18.80
2019-05-23T18:19:52.889Z,18.70
2019-05-23T18:22:22.650Z,18.60
2019-05-23T18:24:52.106Z,18.40
2019-05-23T18:27:21.852Z,18.20
2019-05-23T18:29:51.435Z,18.10
2019-05-23T18:32:23.875Z,17.90
2019-05-23T18:34:53.368Z,17.70
2019-05-23T18:37:22.738Z,17.60
2019-05-23T18:39:52.327Z,17.50
2019-05-23T18:42:22.187Z,17.40
2019-05-23T18:44:52.792Z,17.30
2019-05-23T18:47:37.155Z,17.20
2019-05-23T18:50:08.108Z,17.00
2019-05-23T18:52:37.457Z,16.90
2019-05-23T18:55:07.181Z,16.70
2019-05-23T18:57:36.961Z,16.50
2019-05-23T19:00:06.768Z,16.40
2019-05-23T19:02:36.425Z,16.30
2019-05-23T19:05:07.312Z,16.10
2019-05-23T19:07:36.668Z,16.00
2019-05-23T19:10:07.507Z,15.80
2019-05-23T19:12:36.974Z,15.70
2019-05-23T19:15:06.915Z,15.50
2019-05-23T19:17:37.472Z,15.40
2019-05-23T19:20:07.196Z,15.40
2019-05-23T19:22:36.958Z,15.30
2019-05-23T19:25:06.988Z,15.30
2019-05-23T19:27:37.063Z,15.20
2019-05-23T19:30:06.759Z,15.10
2019-05-23T19:32:36.643Z,15.00
2019-05-23T19:35:07.836Z,14.90
2019-05-23T19:37:37.303Z,14.80
2019-05-23T19:40:08.303Z,14.70
2019-05-23T19:42:37.829Z,14.60
2019-05-23T19:45:07.394Z,14.50
2019-05-23T19:47:36.772Z,14.40
2019-05-23T19:50:06.718Z,14.30
2019-05-23T19:52:36.556Z,14.20
2019-05-23T19:55:06.424Z,14.20
2019-05-23T19:57:36.731Z,14.10
2019-05-23T20:00:07.824Z,14.00
2019-05-23T20:02:45.303Z,13.90
2019-05-23T20:05:28.678Z,13.80
2019-05-23T20:07:58.127Z,13.70
2019-05-23T20:10:28.279Z,13.60
2019-05-23T20:12:57.651Z,13.60
2019-05-23T20:15:28.211Z,13.50
2019-05-23T20:17:57.603Z,13.40
2019-05-23T20:20:28.284Z,13.30
2019-05-23T20:22:57.875Z,13.20
2019-05-23T20:25:28.036Z,13.10
2019-05-23T20:27:57.424Z,13.00
2019-05-23T20:30:55.616Z,12.90
2019-05-23T20:33:25.106Z,12.80
2019-05-23T20:35:54.472Z,12.80
2019-05-23T20:38:24.650Z,12.80
2019-05-23T20:40:54.375Z,12.70
2019-05-23T20:43:23.918Z,12.70
2019-05-23T20:45:53.311Z,12.70
2019-05-23T20:48:23.731Z,12.70
2019-05-23T20:50:53.483Z,12.60
2019-05-23T20:53:23.639Z,12.60
2019-05-23T20:55:52.999Z,12.60
2019-05-23T20:58:22.353Z,12.60
2019-05-23T21:00:58.729Z,12.50
2019-05-23T21:03:29.023Z,12.50
2019-05-23T21:05:58.486Z,12.40
2019-05-23T21:08:27.848Z,12.40
2019-05-23T21:10:57.228Z,12.30
2019-05-23T21:13:26.595Z,12.30
2019-05-23T21:15:55.978Z,12.20
2019-05-23T21:18:25.338Z,12.10
2019-05-23T21:20:54.712Z,12.00
2019-05-23T21:23:24.063Z,11.90
2019-05-23T21:25:57.487Z,11.90
2019-05-23T21:28:27.040Z,11.80
2019-05-23T21:30:56.420Z,11.70
2019-05-23T21:33:26.314Z,11.70
2019-05-23T21:35:55.697Z,11.70
2019-05-23T21:38:25.568Z,11.70
2019-05-23T21:40:55.006Z,11.60
2019-05-23T21:43:24.381Z,11.60
2019-05-23T21:45:54.812Z,11.60
2019-05-23T21:48:24.293Z,11.50
2019-05-23T21:50:53.673Z,11.50
2019-05-23T21:53:23.043Z,11.50
2019-05-23T21:55:52.422Z,11.30
2019-05-23T21:58:21.878Z,11.20
2019-05-23T22:01:59.121Z,11.10
2019-05-23T22:04:31.510Z,11.00
2019-05-23T22:07:02.332Z,11.00
2019-05-23T22:09:31.819Z,10.90
2019-05-23T22:12:01.595Z,10.90
2019-05-23T22:14:30.946Z,10.80
2019-05-23T22:17:00.354Z,10.80
2019-05-23T22:19:29.735Z,10.80
2019-05-23T22:21:59.110Z,10.80
2019-05-23T22:24:28.574Z,10.80
2019-05-23T22:26:57.956Z,10.80
2019-05-23T22:29:27.356Z,10.70
2019-05-23T22:31:56.798Z,10.70
2019-05-23T22:34:39.045Z,10.60
2019-05-23T22:37:33.408Z,10.60
2019-05-23T22:40:02.755Z,10.60
2019-05-23T22:42:33.906Z,10.50
2019-05-23T22:45:04.952Z,10.50
2019-05-23T22:47:34.350Z,10.40
2019-05-23T22:50:04.298Z,10.30
2019-05-23T22:52:33.683Z,10.30
2019-05-23T22:55:03.047Z,10.20
2019-05-23T22:57:32.423Z,10.10
2019-05-23T23:00:01.876Z,10.10
2019-05-23T23:02:31.565Z,10.10
2019-05-23T23:05:00.932Z,10.00
2019-05-23T23:07:30.464Z,10.00
2019-05-23T23:09:59.836Z,10.10
2019-05-23T23:12:29.545Z,10.10
2019-05-23T23:14:58.867Z,10.00
2019-05-23T23:17:28.372Z,10.00
2019-05-23T23:19:57.736Z,10.00
2019-05-23T23:22:27.117Z,10.00
2019-05-23T23:24:59.707Z,10.00
2019-05-23T23:27:29.079Z,9.90
2019-05-23T23:29:58.438Z,9.80
2019-05-23T23:32:27.810Z,9.80
2019-05-23T23:34:57.183Z,9.80
2019-05-23T23:37:26.573Z,9.70
2019-05-23T23:39:55.940Z,9.60
2019-05-23T23:42:25.313Z,9.60
2019-05-23T23:44:53.735Z,9.60
2019-05-23T23:47:40.907Z,9.60
2019-05-23T23:50:28.305Z,9.60
2019-05-23T23:53:15.560Z,9.60
2019-05-23T23:56:02.687Z,9.60
2019-05-23T23:58:31.104Z,9.60
